sensor_id;sensor_type;location;lat;lon;timestamp;temperature;humidity
2957;DHT22;1488;51.548;7.222;2023-02-28T00:00:26;21.70;55.10
2957;DHT22;1488;51.548;7.222;2023-02-28T00:02:53;21.60;55.00
2957;DHT22;1488;51.548;7.222;2023-02-28T00:05:23;21.60;55.00
2957;DHT22;1488;51.548;7.222;2023-02-28T00:07:51;21.60;55.00
2957;DHT22;1488;51.548;7.222;2023-02-28T00:10:19;21.60;55.00
2957;DHT22;1488;51.548;7.222;2023-02-28T00:12:46;21.60;55.00
2957;DHT22;1488;51.548;7.222;2023-02-28T00:15:13;21.60;55.00
2957;DHT22;1488;51.548;7.222;2023-02-28T00:17:40;21.60;55.50
2957;DHT22;1488;51.548;7.222;2023-02-28T00:20:07;21.60;55.00
2957;DHT22;1488;51.548;7.222;2023-02-28T00:22:38;21.60;55.00
2957;DHT22;1488;51.548;7.222;2023-02-28T00:25:05;21.60;55.00
2957;DHT22;1488;51.548;7.222;2023-02-28T00:27:33;21.50;54.90
2957;DHT22;1488;51.548;7.222;2023-02-28T00:30:00;21.50;54.80
2957;DHT22;1488;51.548;7.222;2023-02-28T00:32:27;21.50;54.90
2957;DHT22;1488;51.548;7.222;2023-02-28T00:34:55;21.50;54.90
2957;DHT22;1488;51.548;7.222;2023-02-28T00:37:22;21.50;54.80
2957;DHT22;1488;51.548;7.222;2023-02-28T00:39:50;21.50;54.90
2957;DHT22;1488;51.548;7.222;2023-02-28T00:42:17;21.50;55.40
2957;DHT22;1488;51.548;7.222;2023-02-28T00:44:44;21.50;54.80
2957;DHT22;1488;51.548;7.222;2023-02-28T00:47:10;21.50;54.80
2957;DHT22;1488;51.548;7.222;2023-02-28T00:49:37;21.50;54.80
2957;DHT22;1488;51.548;7.222;2023-02-28T00:52:04;21.50;54.90
2957;DHT22;1488;51.548;7.222;2023-02-28T00:54:31;21.50;54.80
2957;DHT22;1488;51.548;7.222;2023-02-28T00:56:59;21.50;54.80
2957;DHT22;1488;51.548;7.222;2023-02-28T00:59:26;21.40;54.70
2957;DHT22;1488;51.548;7.222;2023-02-28T01:01:52;21.40;54.70
2957;DHT22;1488;51.548;7.222;2023-02-28T01:04:19;21.40;54.70
2957;DHT22;1488;51.548;7.222;2023-02-28T01:06:46;21.40;54.60
2957;DHT22;1488;51.548;7.222;2023-02-28T01:09:13;21.40;54.70
2957;DHT22;1488;51.548;7.222;2023-02-28T01:11:40;21.40;54.70
2957;DHT22;1488;51.548;7.222;2023-02-28T01:14:12;21.40;54.70
2957;DHT22;1488;51.548;7.222;2023-02-28T01:16:39;21.40;54.70
2957;DHT22;1488;51.548;7.222;2023-02-28T01:19:06;21.30;54.60
2957;DHT22;1488;51.548;7.222;2023-02-28T01:21:33;21.40;54.70
2957;DHT22;1488;51.548;7.222;2023-02-28T01:24:00;21.40;54.60
2957;DHT22;1488;51.548;7.222;2023-02-28T01:26:27;21.30;54.50
2957;DHT22;1488;51.548;7.222;2023-02-28T01:28:56;21.30;54.60
2957;DHT22;1488;51.548;7.222;2023-02-28T01:31:24;21.30;54.50
2957;DHT22;1488;51.548;7.222;2023-02-28T01:33:51;21.30;54.50
2957;DHT22;1488;51.548;7.222;2023-02-28T01:36:20;21.30;54.80
2957;DHT22;1488;51.548;7.222;2023-02-28T01:38:48;21.30;54.50
2957;DHT22;1488;51.548;7.222;2023-02-28T01:41:17;21.30;54.50
2957;DHT22;1488;51.548;7.222;2023-02-28T01:44:00;21.30;54.50
2957;DHT22;1488;51.548;7.222;2023-02-28T01:46:31;21.30;54.50
2957;DHT22;1488;51.548;7.222;2023-02-28T01:49:03;21.30;54.50
2957;DHT22;1488;51.548;7.222;2023-02-28T01:51:34;21.30;54.60
2957;DHT22;1488;51.548;7.222;2023-02-28T01:54:07;21.30;54.50
2957;DHT22;1488;51.548;7.222;2023-02-28T01:56:41;21.30;54.60
2957;DHT22;1488;51.548;7.222;2023-02-28T01:59:11;21.20;54.40
2957;DHT22;1488;51.548;7.222;2023-02-28T02:01:40;21.20;54.50
2957;DHT22;1488;51.548;7.222;2023-02-28T02:04:07;21.20;54.40
2957;DHT22;1488;51.548;7.222;2023-02-28T02:06:37;21.20;54.40
2957;DHT22;1488;51.548;7.222;2023-02-28T02:09:04;21.20;54.40
2957;DHT22;1488;51.548;7.222;2023-02-28T02:11:31;21.20;54.30
2957;DHT22;1488;51.548;7.222;2023-02-28T02:14:10;21.20;54.40
2957;DHT22;1488;51.548;7.222;2023-02-28T02:16:52;21.20;54.30
2957;DHT22;1488;51.548;7.222;2023-02-28T02:19:46;21.20;54.30
2957;DHT22;1488;51.548;7.222;2023-02-28T02:25:22;21.20;54.40
2957;DHT22;1488;51.548;7.222;2023-02-28T02:28:06;21.20;54.30
2957;DHT22;1488;51.548;7.222;2023-02-28T02:30:49;21.30;54.40
2957;DHT22;1488;51.548;7.222;2023-02-28T02:33:38;21.20;54.30
2957;DHT22;1488;51.548;7.222;2023-02-28T02:36:13;21.10;54.30
2957;DHT22;1488;51.548;7.222;2023-02-28T02:38:47;21.10;54.20
2957;DHT22;1488;51.548;7.222;2023-02-28T02:41:19;21.20;54.30
2957;DHT22;1488;51.548;7.222;2023-02-28T02:43:52;21.10;54.20
2957;DHT22;1488;51.548;7.222;2023-02-28T02:46:21;21.10;54.20
2957;DHT22;1488;51.548;7.222;2023-02-28T02:48:51;21.10;54.20
2957;DHT22;1488;51.548;7.222;2023-02-28T02:51:22;21.10;54.20
2957;DHT22;1488;51.548;7.222;2023-02-28T02:53:52;21.10;54.20
2957;DHT22;1488;51.548;7.222;2023-02-28T02:56:25;21.10;54.10
2957;DHT22;1488;51.548;7.222;2023-02-28T02:58:55;21.10;54.20
2957;DHT22;1488;51.548;7.222;2023-02-28T03:01:26;21.10;54.20
2957;DHT22;1488;51.548;7.222;2023-02-28T03:03:56;21.10;54.20
2957;DHT22;1488;51.548;7.222;2023-02-28T03:06:25;21.10;54.20
2957;DHT22;1488;51.548;7.222;2023-02-28T03:08:51;21.10;54.10
2957;DHT22;1488;51.548;7.222;2023-02-28T03:11:19;21.10;54.20
2957;DHT22;1488;51.548;7.222;2023-02-28T03:13:58;21.10;54.20
2957;DHT22;1488;51.548;7.222;2023-02-28T03:16:54;21.00;54.10
2957;DHT22;1488;51.548;7.222;2023-02-28T03:19:45;21.00;54.10
2957;DHT22;1488;51.548;7.222;2023-02-28T03:22:32;21.00;54.00
2957;DHT22;1488;51.548;7.222;2023-02-28T03:25:06;21.00;54.10
2957;DHT22;1488;51.548;7.222;2023-02-28T03:27:39;21.00;54.10
2957;DHT22;1488;51.548;7.222;2023-02-28T03:30:11;21.10;54.20
2957;DHT22;1488;51.548;7.222;2023-02-28T03:32:47;21.00;54.10
2957;DHT22;1488;51.548;7.222;2023-02-28T03:35:21;21.00;54.10
2957;DHT22;1488;51.548;7.222;2023-02-28T03:37:53;21.00;54.10
2957;DHT22;1488;51.548;7.222;2023-02-28T03:40:23;21.00;54.10
2957;DHT22;1488;51.548;7.222;2023-02-28T03:42:56;21.00;54.10
2957;DHT22;1488;51.548;7.222;2023-02-28T03:45:27;21.00;54.10
2957;DHT22;1488;51.548;7.222;2023-02-28T03:47:58;20.90;54.00
2957;DHT22;1488;51.548;7.222;2023-02-28T03:50:32;20.90;54.00
2957;DHT22;1488;51.548;7.222;2023-02-28T03:53:06;20.90;54.00
2957;DHT22;1488;51.548;7.222;2023-02-28T03:55:37;20.90;54.00
2957;DHT22;1488;51.548;7.222;2023-02-28T03:58:11;20.90;54.00
2957;DHT22;1488;51.548;7.222;2023-02-28T04:00:43;20.90;54.00
2957;DHT22;1488;51.548;7.222;2023-02-28T04:03:11;20.90;54.00
2957;DHT22;1488;51.548;7.222;2023-02-28T04:05:48;20.90;53.90
2957;DHT22;1488;51.548;7.222;2023-02-28T04:08:18;20.90;54.00
2957;DHT22;1488;51.548;7.222;2023-02-28T04:10:49;20.90;53.90
2957;DHT22;1488;51.548;7.222;2023-02-28T04:13:17;20.90;54.00
2957;DHT22;1488;51.548;7.222;2023-02-28T04:15:44;20.90;54.00
2957;DHT22;1488;51.548;7.222;2023-02-28T04:18:11;20.90;54.00
2957;DHT22;1488;51.548;7.222;2023-02-28T04:20:37;21.00;54.00
2957;DHT22;1488;51.548;7.222;2023-02-28T04:23:04;20.80;53.90
2957;DHT22;1488;51.548;7.222;2023-02-28T04:25:32;20.80;53.90
2957;DHT22;1488;51.548;7.222;2023-02-28T04:27:59;20.80;53.90
2957;DHT22;1488;51.548;7.222;2023-02-28T04:30:26;20.80;53.90
2957;DHT22;1488;51.548;7.222;2023-02-28T04:32:52;20.80;53.90
2957;DHT22;1488;51.548;7.222;2023-02-28T04:35:19;20.80;53.90
2957;DHT22;1488;51.548;7.222;2023-02-28T04:37:46;20.80;53.90
2957;DHT22;1488;51.548;7.222;2023-02-28T04:40:13;20.80;53.90
2957;DHT22;1488;51.548;7.222;2023-02-28T04:42:41;20.90;53.90
2957;DHT22;1488;51.548;7.222;2023-02-28T04:45:09;20.80;53.90
2957;DHT22;1488;51.548;7.222;2023-02-28T04:47:36;20.80;53.90
2957;DHT22;1488;51.548;7.222;2023-02-28T04:50:03;20.80;53.80
2957;DHT22;1488;51.548;7.222;2023-02-28T04:52:30;20.80;53.90
2957;DHT22;1488;51.548;7.222;2023-02-28T04:54:57;20.80;53.80
2957;DHT22;1488;51.548;7.222;2023-02-28T04:57:24;20.80;53.80
2957;DHT22;1488;51.548;7.222;2023-02-28T04:59:52;20.80;53.90
2957;DHT22;1488;51.548;7.222;2023-02-28T05:02:19;20.80;53.90
2957;DHT22;1488;51.548;7.222;2023-02-28T05:04:46;20.70;53.70
2957;DHT22;1488;51.548;7.222;2023-02-28T05:07:13;20.70;53.70
2957;DHT22;1488;51.548;7.222;2023-02-28T05:09:40;20.70;53.80
2957;DHT22;1488;51.548;7.222;2023-02-28T05:12:07;20.70;53.70
2957;DHT22;1488;51.548;7.222;2023-02-28T05:14:35;20.70;53.70
2957;DHT22;1488;51.548;7.222;2023-02-28T05:17:03;20.70;53.80
2957;DHT22;1488;51.548;7.222;2023-02-28T05:19:30;20.70;53.70
2957;DHT22;1488;51.548;7.222;2023-02-28T05:21:57;20.70;53.70
2957;DHT22;1488;51.548;7.222;2023-02-28T05:24:24;20.70;54.10
2957;DHT22;1488;51.548;7.222;2023-02-28T05:26:52;20.70;53.90
2957;DHT22;1488;51.548;7.222;2023-02-28T05:29:19;20.70;53.90
2957;DHT22;1488;51.548;7.222;2023-02-28T05:31:47;20.70;53.70
2957;DHT22;1488;51.548;7.222;2023-02-28T05:34:15;20.80;53.90
2957;DHT22;1488;51.548;7.222;2023-02-28T05:36:44;20.70;53.90
2957;DHT22;1488;51.548;7.222;2023-02-28T05:39:11;20.80;54.00
2957;DHT22;1488;51.548;7.222;2023-02-28T05:41:42;20.80;53.90
2957;DHT22;1488;51.548;7.222;2023-02-28T05:44:09;20.70;53.90
2957;DHT22;1488;51.548;7.222;2023-02-28T05:46:36;20.90;54.20
2957;DHT22;1488;51.548;7.222;2023-02-28T05:49:04;20.80;54.40
2957;DHT22;1488;51.548;7.222;2023-02-28T05:51:32;20.80;54.10
2957;DHT22;1488;51.548;7.222;2023-02-28T05:54:00;20.80;54.00
2957;DHT22;1488;51.548;7.222;2023-02-28T05:56:27;20.80;54.10
2957;DHT22;1488;51.548;7.222;2023-02-28T05:58:53;20.80;54.10
2957;DHT22;1488;51.548;7.222;2023-02-28T06:01:30;20.80;54.30
2957;DHT22;1488;51.548;7.222;2023-02-28T06:03:58;20.80;54.30
2957;DHT22;1488;51.548;7.222;2023-02-28T06:06:25;20.70;54.00
2957;DHT22;1488;51.548;7.222;2023-02-28T06:08:53;20.70;54.00
2957;DHT22;1488;51.548;7.222;2023-02-28T06:11:20;20.70;54.00
2957;DHT22;1488;51.548;7.222;2023-02-28T06:13:47;20.70;54.40
2957;DHT22;1488;51.548;7.222;2023-02-28T06:16:14;20.70;54.10
2957;DHT22;1488;51.548;7.222;2023-02-28T06:18:40;20.70;54.10
2957;DHT22;1488;51.548;7.222;2023-02-28T06:21:07;20.70;54.20
2957;DHT22;1488;51.548;7.222;2023-02-28T06:23:34;20.60;54.20
2957;DHT22;1488;51.548;7.222;2023-02-28T06:26:02;20.60;54.10
2957;DHT22;1488;51.548;7.222;2023-02-28T06:28:29;20.60;54.20
2957;DHT22;1488;51.548;7.222;2023-02-28T06:30:56;20.60;54.50
2957;DHT22;1488;51.548;7.222;2023-02-28T06:33:22;20.60;53.90
2957;DHT22;1488;51.548;7.222;2023-02-28T06:35:50;20.80;54.10
2957;DHT22;1488;51.548;7.222;2023-02-28T06:38:18;20.60;53.90
2957;DHT22;1488;51.548;7.222;2023-02-28T06:40:48;20.50;53.90
2957;DHT22;1488;51.548;7.222;2023-02-28T06:43:20;20.70;54.00
2957;DHT22;1488;51.548;7.222;2023-02-28T06:45:47;20.50;53.70
2957;DHT22;1488;51.548;7.222;2023-02-28T06:48:14;20.50;53.80
2957;DHT22;1488;51.548;7.222;2023-02-28T06:50:40;20.50;53.70
2957;DHT22;1488;51.548;7.222;2023-02-28T06:53:07;20.60;53.90
2957;DHT22;1488;51.548;7.222;2023-02-28T06:55:34;20.50;53.80
2957;DHT22;1488;51.548;7.222;2023-02-28T06:58:01;20.40;53.70
2957;DHT22;1488;51.548;7.222;2023-02-28T07:00:29;20.50;53.80
2957;DHT22;1488;51.548;7.222;2023-02-28T07:02:56;20.50;53.80
2957;DHT22;1488;51.548;7.222;2023-02-28T07:05:22;20.50;53.80
2957;DHT22;1488;51.548;7.222;2023-02-28T07:07:49;20.40;53.70
2957;DHT22;1488;51.548;7.222;2023-02-28T07:10:17;20.40;53.80
2957;DHT22;1488;51.548;7.222;2023-02-28T07:12:45;20.40;53.70
2957;DHT22;1488;51.548;7.222;2023-02-28T07:15:11;20.50;53.80
2957;DHT22;1488;51.548;7.222;2023-02-28T07:17:39;20.60;53.80
2957;DHT22;1488;51.548;7.222;2023-02-28T07:20:09;20.40;53.70
2957;DHT22;1488;51.548;7.222;2023-02-28T07:22:36;20.40;53.70
2957;DHT22;1488;51.548;7.222;2023-02-28T07:25:04;20.40;53.70
2957;DHT22;1488;51.548;7.222;2023-02-28T07:27:31;20.40;53.70
2957;DHT22;1488;51.548;7.222;2023-02-28T07:29:59;20.40;53.80
2957;DHT22;1488;51.548;7.222;2023-02-28T07:32:29;20.40;53.70
2957;DHT22;1488;51.548;7.222;2023-02-28T07:34:57;20.40;53.70
2957;DHT22;1488;51.548;7.222;2023-02-28T07:37:24;20.40;53.60
2957;DHT22;1488;51.548;7.222;2023-02-28T07:39:50;20.40;53.70
2957;DHT22;1488;51.548;7.222;2023-02-28T07:42:17;20.40;53.60
2957;DHT22;1488;51.548;7.222;2023-02-28T07:44:44;20.50;53.70
2957;DHT22;1488;51.548;7.222;2023-02-28T07:47:11;20.40;53.70
2957;DHT22;1488;51.548;7.222;2023-02-28T07:49:38;20.40;53.60
2957;DHT22;1488;51.548;7.222;2023-02-28T07:52:06;20.40;53.60
2957;DHT22;1488;51.548;7.222;2023-02-28T07:54:34;20.40;53.60
2957;DHT22;1488;51.548;7.222;2023-02-28T07:57:00;20.40;54.20
2957;DHT22;1488;51.548;7.222;2023-02-28T07:59:28;20.40;53.60
2957;DHT22;1488;51.548;7.222;2023-02-28T08:01:57;20.40;53.60
2957;DHT22;1488;51.548;7.222;2023-02-28T08:04:23;20.40;53.60
2957;DHT22;1488;51.548;7.222;2023-02-28T08:06:50;20.40;53.60
2957;DHT22;1488;51.548;7.222;2023-02-28T08:09:19;20.40;53.50
2957;DHT22;1488;51.548;7.222;2023-02-28T08:11:46;20.40;54.10
2957;DHT22;1488;51.548;7.222;2023-02-28T08:14:13;20.50;53.70
2957;DHT22;1488;51.548;7.222;2023-02-28T08:16:40;20.50;53.70
2957;DHT22;1488;51.548;7.222;2023-02-28T08:19:08;20.60;53.90
2957;DHT22;1488;51.548;7.222;2023-02-28T08:21:35;20.60;53.90
2957;DHT22;1488;51.548;7.222;2023-02-28T08:24:01;20.70;53.90
2957;DHT22;1488;51.548;7.222;2023-02-28T08:26:30;20.70;53.90
2957;DHT22;1488;51.548;7.222;2023-02-28T08:28:56;20.70;54.00
2957;DHT22;1488;51.548;7.222;2023-02-28T08:31:23;20.80;54.00
2957;DHT22;1488;51.548;7.222;2023-02-28T08:33:50;20.90;54.00
2957;DHT22;1488;51.548;7.222;2023-02-28T08:36:19;21.00;54.00
2957;DHT22;1488;51.548;7.222;2023-02-28T08:38:45;20.90;53.90
2957;DHT22;1488;51.548;7.222;2023-02-28T08:41:12;21.00;53.90
2957;DHT22;1488;51.548;7.222;2023-02-28T08:43:41;21.20;54.00
2957;DHT22;1488;51.548;7.222;2023-02-28T08:46:11;21.20;53.80
2957;DHT22;1488;51.548;7.222;2023-02-28T08:48:38;21.50;53.70
2957;DHT22;1488;51.548;7.222;2023-02-28T08:51:08;21.70;53.30
2957;DHT22;1488;51.548;7.222;2023-02-28T08:53:36;21.80;53.00
2957;DHT22;1488;51.548;7.222;2023-02-28T08:56:04;22.00;52.70
2957;DHT22;1488;51.548;7.222;2023-02-28T08:58:32;22.20;52.60
2957;DHT22;1488;51.548;7.222;2023-02-28T09:01:08;22.30;52.40
2957;DHT22;1488;51.548;7.222;2023-02-28T09:03:35;22.50;52.30
2957;DHT22;1488;51.548;7.222;2023-02-28T09:06:02;22.70;52.10
2957;DHT22;1488;51.548;7.222;2023-02-28T09:08:31;22.90;52.00
2957;DHT22;1488;51.548;7.222;2023-02-28T09:10:58;23.20;51.80
2957;DHT22;1488;51.548;7.222;2023-02-28T09:13:25;23.30;51.60
2957;DHT22;1488;51.548;7.222;2023-02-28T09:15:52;23.60;51.40
2957;DHT22;1488;51.548;7.222;2023-02-28T09:18:20;23.80;51.20
2957;DHT22;1488;51.548;7.222;2023-02-28T09:20:47;24.00;51.10
2957;DHT22;1488;51.548;7.222;2023-02-28T09:23:15;24.20;51.00
2957;DHT22;1488;51.548;7.222;2023-02-28T09:25:45;24.40;50.90
2957;DHT22;1488;51.548;7.222;2023-02-28T09:28:12;24.60;50.80
2957;DHT22;1488;51.548;7.222;2023-02-28T09:30:41;24.60;50.50
2957;DHT22;1488;51.548;7.222;2023-02-28T09:33:08;24.60;50.60
2957;DHT22;1488;51.548;7.222;2023-02-28T09:35:36;24.60;50.70
2957;DHT22;1488;51.548;7.222;2023-02-28T09:38:04;24.50;50.70
2957;DHT22;1488;51.548;7.222;2023-02-28T09:40:36;24.30;51.00
2957;DHT22;1488;51.548;7.222;2023-02-28T09:43:03;24.20;51.40
2957;DHT22;1488;51.548;7.222;2023-02-28T09:45:33;24.10;51.50
2957;DHT22;1488;51.548;7.222;2023-02-28T09:48:04;24.00;51.70
2957;DHT22;1488;51.548;7.222;2023-02-28T09:50:38;24.20;51.70
2957;DHT22;1488;51.548;7.222;2023-02-28T09:53:13;24.40;51.50
2957;DHT22;1488;51.548;7.222;2023-02-28T09:55:48;24.60;51.20
2957;DHT22;1488;51.548;7.222;2023-02-28T09:58:34;24.90;51.00
2957;DHT22;1488;51.548;7.222;2023-02-28T10:01:06;25.20;50.70
2957;DHT22;1488;51.548;7.222;2023-02-28T10:03:39;25.40;50.50
2957;DHT22;1488;51.548;7.222;2023-02-28T10:06:13;25.50;50.40
2957;DHT22;1488;51.548;7.222;2023-02-28T10:08:47;25.50;50.40
2957;DHT22;1488;51.548;7.222;2023-02-28T10:11:18;25.50;50.50
2957;DHT22;1488;51.548;7.222;2023-02-28T10:13:56;25.50;50.50
2957;DHT22;1488;51.548;7.222;2023-02-28T10:16:31;25.40;50.60
2957;DHT22;1488;51.548;7.222;2023-02-28T10:19:03;25.40;50.70
2957;DHT22;1488;51.548;7.222;2023-02-28T10:21:36;25.40;50.90
2957;DHT22;1488;51.548;7.222;2023-02-28T10:24:16;25.20;51.10
2957;DHT22;1488;51.548;7.222;2023-02-28T10:26:47;25.10;51.40
2957;DHT22;1488;51.548;7.222;2023-02-28T10:29:14;24.90;51.70
2957;DHT22;1488;51.548;7.222;2023-02-28T10:31:42;24.70;51.80
2957;DHT22;1488;51.548;7.222;2023-02-28T10:34:11;24.60;52.00
2957;DHT22;1488;51.548;7.222;2023-02-28T10:36:41;24.50;52.30
2957;DHT22;1488;51.548;7.222;2023-02-28T10:39:35;24.50;52.90
2957;DHT22;1488;51.548;7.222;2023-02-28T10:42:03;24.40;52.50
2957;DHT22;1488;51.548;7.222;2023-02-28T10:44:29;24.30;52.70
2957;DHT22;1488;51.548;7.222;2023-02-28T10:46:56;24.20;52.50
2957;DHT22;1488;51.548;7.222;2023-02-28T10:49:26;24.20;52.70
2957;DHT22;1488;51.548;7.222;2023-02-28T10:51:57;24.10;52.80
2957;DHT22;1488;51.548;7.222;2023-02-28T10:54:29;24.10;52.90
2957;DHT22;1488;51.548;7.222;2023-02-28T10:57:08;24.10;52.80
2957;DHT22;1488;51.548;7.222;2023-02-28T10:59:36;24.20;53.00
2957;DHT22;1488;51.548;7.222;2023-02-28T11:02:31;24.20;52.90
2957;DHT22;1488;51.548;7.222;2023-02-28T11:05:23;24.20;52.90
2957;DHT22;1488;51.548;7.222;2023-02-28T11:07:53;24.20;52.90
2957;DHT22;1488;51.548;7.222;2023-02-28T11:10:25;24.20;52.90
2957;DHT22;1488;51.548;7.222;2023-02-28T11:12:55;24.40;53.10
2957;DHT22;1488;51.548;7.222;2023-02-28T11:15:24;24.20;53.00
2957;DHT22;1488;51.548;7.222;2023-02-28T11:17:56;24.30;53.00
2957;DHT22;1488;51.548;7.222;2023-02-28T11:20:26;24.30;53.00
2957;DHT22;1488;51.548;7.222;2023-02-28T11:22:55;24.30;52.90
2957;DHT22;1488;51.548;7.222;2023-02-28T11:25:24;24.40;53.00
2957;DHT22;1488;51.548;7.222;2023-02-28T11:27:52;24.40;53.10
2957;DHT22;1488;51.548;7.222;2023-02-28T11:30:31;24.40;53.00
2957;DHT22;1488;51.548;7.222;2023-02-28T11:32:59;24.50;52.80
2957;DHT22;1488;51.548;7.222;2023-02-28T11:35:29;24.50;52.90
2957;DHT22;1488;51.548;7.222;2023-02-28T11:37:58;24.50;52.80
2957;DHT22;1488;51.548;7.222;2023-02-28T11:40:33;24.60;53.00
2957;DHT22;1488;51.548;7.222;2023-02-28T11:43:09;24.40;52.90
2957;DHT22;1488;51.548;7.222;2023-02-28T11:45:49;24.40;53.00
2957;DHT22;1488;51.548;7.222;2023-02-28T11:48:22;24.40;53.10
2957;DHT22;1488;51.548;7.222;2023-02-28T11:51:00;24.40;53.00
2957;DHT22;1488;51.548;7.222;2023-02-28T11:53:50;24.40;53.00
2957;DHT22;1488;51.548;7.222;2023-02-28T11:56:23;24.50;53.10
2957;DHT22;1488;51.548;7.222;2023-02-28T11:58:59;24.40;53.00
2957;DHT22;1488;51.548;7.222;2023-02-28T12:01:45;24.40;53.10
2957;DHT22;1488;51.548;7.222;2023-02-28T12:04:24;24.50;53.00
2957;DHT22;1488;51.548;7.222;2023-02-28T12:06:57;24.50;53.00
2957;DHT22;1488;51.548;7.222;2023-02-28T12:09:42;24.60;53.00
2957;DHT22;1488;51.548;7.222;2023-02-28T12:12:21;24.50;53.00
2957;DHT22;1488;51.548;7.222;2023-02-28T12:15:06;24.60;53.10
2957;DHT22;1488;51.548;7.222;2023-02-28T12:17:51;24.50;52.90
2957;DHT22;1488;51.548;7.222;2023-02-28T12:20:28;24.50;52.80
2957;DHT22;1488;51.548;7.222;2023-02-28T12:23:10;24.50;53.00
2957;DHT22;1488;51.548;7.222;2023-02-28T12:25:59;24.40;53.10
2957;DHT22;1488;51.548;7.222;2023-02-28T12:28:34;24.40;53.30
2957;DHT22;1488;51.548;7.222;2023-02-28T12:31:04;24.30;53.30
2957;DHT22;1488;51.548;7.222;2023-02-28T12:33:34;24.30;53.40
2957;DHT22;1488;51.548;7.222;2023-02-28T12:36:09;24.30;53.50
2957;DHT22;1488;51.548;7.222;2023-02-28T12:38:41;24.30;53.50
2957;DHT22;1488;51.548;7.222;2023-02-28T12:41:13;24.30;53.60
2957;DHT22;1488;51.548;7.222;2023-02-28T12:43:44;24.30;53.60
2957;DHT22;1488;51.548;7.222;2023-02-28T12:46:16;24.30;53.60
2957;DHT22;1488;51.548;7.222;2023-02-28T12:48:46;24.20;53.60
2957;DHT22;1488;51.548;7.222;2023-02-28T12:51:13;24.20;53.40
2957;DHT22;1488;51.548;7.222;2023-02-28T12:53:53;24.20;53.60
2957;DHT22;1488;51.548;7.222;2023-02-28T12:56:33;24.10;53.70
2957;DHT22;1488;51.548;7.222;2023-02-28T12:59:09;24.10;53.70
2957;DHT22;1488;51.548;7.222;2023-02-28T13:02:06;24.10;53.80
2957;DHT22;1488;51.548;7.222;2023-02-28T13:04:55;24.20;53.90
2957;DHT22;1488;51.548;7.222;2023-02-28T13:07:47;24.10;54.10
2957;DHT22;1488;51.548;7.222;2023-02-28T13:10:18;24.10;54.20
2957;DHT22;1488;51.548;7.222;2023-02-28T13:12:51;24.10;54.30
2957;DHT22;1488;51.548;7.222;2023-02-28T13:15:21;24.10;54.30
2957;DHT22;1488;51.548;7.222;2023-02-28T13:17:51;24.10;54.30
2957;DHT22;1488;51.548;7.222;2023-02-28T13:20:20;24.10;54.40
2957;DHT22;1488;51.548;7.222;2023-02-28T13:22:49;24.10;54.50
2957;DHT22;1488;51.548;7.222;2023-02-28T13:34:35;24.00;53.70
2957;DHT22;1488;51.548;7.222;2023-02-28T13:37:32;24.00;54.00
2957;DHT22;1488;51.548;7.222;2023-02-28T13:40:22;24.00;54.10
2957;DHT22;1488;51.548;7.222;2023-02-28T13:42:52;24.00;53.90
2957;DHT22;1488;51.548;7.222;2023-02-28T13:45:25;24.00;53.90
2957;DHT22;1488;51.548;7.222;2023-02-28T13:47:54;24.10;53.90
2957;DHT22;1488;51.548;7.222;2023-02-28T13:50:29;24.10;54.00
2957;DHT22;1488;51.548;7.222;2023-02-28T13:53:17;24.00;54.00
2957;DHT22;1488;51.548;7.222;2023-02-28T13:55:53;24.10;54.00
2957;DHT22;1488;51.548;7.222;2023-02-28T13:58:36;24.30;54.00
2957;DHT22;1488;51.548;7.222;2023-02-28T14:01:21;24.10;53.90
2957;DHT22;1488;51.548;7.222;2023-02-28T14:04:08;24.10;54.00
2957;DHT22;1488;51.548;7.222;2023-02-28T14:06:47;24.30;54.00
2957;DHT22;1488;51.548;7.222;2023-02-28T14:09:21;24.10;54.00
2957;DHT22;1488;51.548;7.222;2023-02-28T14:11:50;24.00;54.10
2957;DHT22;1488;51.548;7.222;2023-02-28T14:14:53;24.00;54.20
2957;DHT22;1488;51.548;7.222;2023-02-28T14:17:21;23.90;54.20
2957;DHT22;1488;51.548;7.222;2023-02-28T14:19:48;23.90;54.20
2957;DHT22;1488;51.548;7.222;2023-02-28T14:22:38;23.90;54.20
2957;DHT22;1488;51.548;7.222;2023-02-28T14:25:18;23.90;54.30
2957;DHT22;1488;51.548;7.222;2023-02-28T14:27:50;23.90;54.30
2957;DHT22;1488;51.548;7.222;2023-02-28T14:30:42;23.80;54.20
2957;DHT22;1488;51.548;7.222;2023-02-28T14:33:23;23.80;54.30
2957;DHT22;1488;51.548;7.222;2023-02-28T14:36:07;23.80;54.40
2957;DHT22;1488;51.548;7.222;2023-02-28T14:38:41;23.70;54.40
2957;DHT22;1488;51.548;7.222;2023-02-28T14:41:17;23.70;54.40
2957;DHT22;1488;51.548;7.222;2023-02-28T14:43:51;23.90;54.60
2957;DHT22;1488;51.548;7.222;2023-02-28T14:46:19;23.70;54.50
2957;DHT22;1488;51.548;7.222;2023-02-28T14:48:46;23.70;54.40
2957;DHT22;1488;51.548;7.222;2023-02-28T14:51:18;23.70;54.40
2957;DHT22;1488;51.548;7.222;2023-02-28T14:53:50;23.60;54.40
2957;DHT22;1488;51.548;7.222;2023-02-28T14:56:21;23.60;54.40
2957;DHT22;1488;51.548;7.222;2023-02-28T14:58:52;23.60;54.50
2957;DHT22;1488;51.548;7.222;2023-02-28T15:01:20;23.50;54.60
2957;DHT22;1488;51.548;7.222;2023-02-28T15:03:48;23.50;54.60
2957;DHT22;1488;51.548;7.222;2023-02-28T15:06:22;23.50;54.60
2957;DHT22;1488;51.548;7.222;2023-02-28T15:09:06;23.50;54.60
2957;DHT22;1488;51.548;7.222;2023-02-28T15:11:33;23.40;54.60
2957;DHT22;1488;51.548;7.222;2023-02-28T15:14:01;23.40;54.50
2957;DHT22;1488;51.548;7.222;2023-02-28T15:16:31;23.40;54.50
2957;DHT22;1488;51.548;7.222;2023-02-28T15:19:00;23.40;54.70
2957;DHT22;1488;51.548;7.222;2023-02-28T15:21:31;23.40;54.80
2957;DHT22;1488;51.548;7.222;2023-02-28T15:24:00;23.30;54.60
2957;DHT22;1488;51.548;7.222;2023-02-28T15:26:33;23.30;54.50
2957;DHT22;1488;51.548;7.222;2023-02-28T15:29:03;23.30;54.50
2957;DHT22;1488;51.548;7.222;2023-02-28T15:31:32;23.30;54.70
2957;DHT22;1488;51.548;7.222;2023-02-28T15:34:04;23.30;54.60
2957;DHT22;1488;51.548;7.222;2023-02-28T15:36:32;23.30;54.60
2957;DHT22;1488;51.548;7.222;2023-02-28T15:39:03;23.30;54.60
2957;DHT22;1488;51.548;7.222;2023-02-28T15:41:45;23.20;54.60
2957;DHT22;1488;51.548;7.222;2023-02-28T15:44:25;23.20;54.50
2957;DHT22;1488;51.548;7.222;2023-02-28T15:46:58;23.20;54.50
2957;DHT22;1488;51.548;7.222;2023-02-28T15:49:27;23.40;54.70
2957;DHT22;1488;51.548;7.222;2023-02-28T15:51:58;23.10;54.40
2957;DHT22;1488;51.548;7.222;2023-02-28T15:54:28;23.10;54.60
2957;DHT22;1488;51.548;7.222;2023-02-28T15:57:01;23.10;54.50
2957;DHT22;1488;51.548;7.222;2023-02-28T15:59:30;23.10;54.40
2957;DHT22;1488;51.548;7.222;2023-02-28T16:02:15;23.10;54.50
2957;DHT22;1488;51.548;7.222;2023-02-28T16:05:02;23.00;54.40
2957;DHT22;1488;51.548;7.222;2023-02-28T16:07:42;23.00;54.60
2957;DHT22;1488;51.548;7.222;2023-02-28T16:10:11;22.90;54.60
2957;DHT22;1488;51.548;7.222;2023-02-28T16:12:41;22.90;54.50
2957;DHT22;1488;51.548;7.222;2023-02-28T16:15:16;22.90;54.70
2957;DHT22;1488;51.548;7.222;2023-02-28T16:17:44;22.90;54.80
2957;DHT22;1488;51.548;7.222;2023-02-28T16:20:14;22.80;54.80
2957;DHT22;1488;51.548;7.222;2023-02-28T16:22:41;22.80;54.90
2957;DHT22;1488;51.548;7.222;2023-02-28T16:25:10;22.80;54.90
2957;DHT22;1488;51.548;7.222;2023-02-28T16:27:39;22.80;54.90
2957;DHT22;1488;51.548;7.222;2023-02-28T16:30:16;22.70;54.90
2957;DHT22;1488;51.548;7.222;2023-02-28T16:32:44;22.80;55.00
2957;DHT22;1488;51.548;7.222;2023-02-28T16:35:11;22.70;54.90
2957;DHT22;1488;51.548;7.222;2023-02-28T16:37:39;22.70;55.00
2957;DHT22;1488;51.548;7.222;2023-02-28T16:40:08;22.70;55.00